<?xml version="1.0" encoding="utf-8"?>
<gpx xmlns:xsi="http://www.w3.org/2001/XMLSchema-instance" xmlns:xsd="http://www.w3.org/2001/XMLSchema" version="1.1" creator="Shapelink.com" xmlns="http://www.topografix.com/GPX/1/1" xmlns:gpxtpx="http://www.garmin.com/xmlschemas/TrackPointExtension/v1">
  <metadata>
    <name>Rullskidor - Klassisk 5.17 km, 2012-07-31</name>
    <desc></desc>
    <author><name>Alexander Engvall</name></author> 
    <time>2012-07-31T21:32:11Z</time>
  </metadata>
  <trk>
    <name>Rullskidor - Klassisk 5.17 km, 2012-07-31</name>
    <trkseg>
      <trkpt lat="59.4572694" lon="17.8051375">
        <ele>24.4</ele>
        <time>2012-07-31T21:32:11Z</time>
      </trkpt>
      <trkpt lat="59.4571986" lon="17.8052918">
        <ele>23.6</ele>
        <time>2012-07-31T21:32:15Z</time>
      </trkpt>
      <trkpt lat="59.4571291" lon="17.8054089">
        <ele>23.6</ele>
        <time>2012-07-31T21:32:16Z</time>
      </trkpt>
      <trkpt lat="59.4570182" lon="17.8054507">
        <ele>23.8</ele>
        <time>2012-07-31T21:32:20Z</time>
      </trkpt>
      <trkpt lat="59.4567917" lon="17.8053358">
        <ele>25.4</ele>
        <time>2012-07-31T21:32:25Z</time>
      </trkpt>
      <trkpt lat="59.4567478" lon="17.8053147">
        <ele>25.6</ele>
        <time>2012-07-31T21:32:26Z</time>
      </trkpt>
      <trkpt lat="59.4566103" lon="17.8052478">
        <ele>24.8</ele>
        <time>2012-07-31T21:32:29Z</time>
      </trkpt>
      <trkpt lat="59.4564744" lon="17.8051649">
        <ele>25.2</ele>
        <time>2012-07-31T21:32:32Z</time>
      </trkpt>
      <trkpt lat="59.4564285" lon="17.8051338">
        <ele>25.2</ele>
        <time>2012-07-31T21:32:33Z</time>
      </trkpt>
      <trkpt lat="59.4563282" lon="17.8050891">
        <ele>25</ele>
        <time>2012-07-31T21:32:35Z</time>
      </trkpt>
      <trkpt lat="59.4562423" lon="17.8050399">
        <ele>25.2</ele>
        <time>2012-07-31T21:32:37Z</time>
      </trkpt>
      <trkpt lat="59.456147" lon="17.8049596">
        <ele>25.4</ele>
        <time>2012-07-31T21:32:39Z</time>
      </trkpt>
      <trkpt lat="59.4560621" lon="17.8048949">
        <ele>25.2</ele>
        <time>2012-07-31T21:32:41Z</time>
      </trkpt>
      <trkpt lat="59.4559755" lon="17.8048133">
        <ele>25.6</ele>
        <time>2012-07-31T21:32:43Z</time>
      </trkpt>
      <trkpt lat="59.4559273" lon="17.8047834">
        <ele>25.8</ele>
        <time>2012-07-31T21:32:44Z</time>
      </trkpt>
      <trkpt lat="59.4558792" lon="17.8047542">
        <ele>26.2</ele>
        <time>2012-07-31T21:32:45Z</time>
      </trkpt>
      <trkpt lat="59.4556893" lon="17.8046032">
        <ele>27.4</ele>
        <time>2012-07-31T21:32:49Z</time>
      </trkpt>
      <trkpt lat="59.4555207" lon="17.8044485">
        <ele>27</ele>
        <time>2012-07-31T21:32:53Z</time>
      </trkpt>
      <trkpt lat="59.455311" lon="17.8043155">
        <ele>24</ele>
        <time>2012-07-31T21:32:58Z</time>
      </trkpt>
      <trkpt lat="59.4551596" lon="17.8042718">
        <ele>23.4</ele>
        <time>2012-07-31T21:33:01Z</time>
      </trkpt>
      <trkpt lat="59.4551069" lon="17.8042763">
        <ele>23.6</ele>
        <time>2012-07-31T21:33:02Z</time>
      </trkpt>
      <trkpt lat="59.4550571" lon="17.8042935">
        <ele>23</ele>
        <time>2012-07-31T21:33:03Z</time>
      </trkpt>
      <trkpt lat="59.4549041" lon="17.8043515">
        <ele>22.2</ele>
        <time>2012-07-31T21:33:06Z</time>
      </trkpt>
      <trkpt lat="59.454759" lon="17.8044448">
        <ele>21.4</ele>
        <time>2012-07-31T21:33:09Z</time>
      </trkpt>
      <trkpt lat="59.4547168" lon="17.8044764">
        <ele>20.2</ele>
        <time>2012-07-31T21:33:10Z</time>
      </trkpt>
      <trkpt lat="59.4545877" lon="17.8046247">
        <ele>20.6</ele>
        <time>2012-07-31T21:33:13Z</time>
      </trkpt>
      <trkpt lat="59.4545514" lon="17.8046909">
        <ele>21</ele>
        <time>2012-07-31T21:33:14Z</time>
      </trkpt>
      <trkpt lat="59.454452" lon="17.8048385">
        <ele>21.2</ele>
        <time>2012-07-31T21:33:17Z</time>
      </trkpt>
      <trkpt lat="59.4543971" lon="17.8049462">
        <ele>21.2</ele>
        <time>2012-07-31T21:33:19Z</time>
      </trkpt>
      <trkpt lat="59.4543326" lon="17.8050425">
        <ele>20.8</ele>
        <time>2012-07-31T21:33:21Z</time>
      </trkpt>
      <trkpt lat="59.4542439" lon="17.8051582">
        <ele>19.2</ele>
        <time>2012-07-31T21:33:24Z</time>
      </trkpt>
      <trkpt lat="59.4541785" lon="17.8052414">
        <ele>19.4</ele>
        <time>2012-07-31T21:33:26Z</time>
      </trkpt>
      <trkpt lat="59.4541141" lon="17.80524">
        <ele>18.6</ele>
        <time>2012-07-31T21:33:28Z</time>
      </trkpt>
      <trkpt lat="59.4540543" lon="17.8052265">
        <ele>18.6</ele>
        <time>2012-07-31T21:33:30Z</time>
      </trkpt>
      <trkpt lat="59.4539967" lon="17.8055623">
        <ele>21</ele>
        <time>2012-07-31T21:33:37Z</time>
      </trkpt>
      <trkpt lat="59.4539419" lon="17.8056465">
        <ele>22</ele>
        <time>2012-07-31T21:33:39Z</time>
      </trkpt>
      <trkpt lat="59.4538305" lon="17.8058487">
        <ele>22.6</ele>
        <time>2012-07-31T21:33:43Z</time>
      </trkpt>
      <trkpt lat="59.453675" lon="17.8061196">
        <ele>21</ele>
        <time>2012-07-31T21:33:48Z</time>
      </trkpt>
      <trkpt lat="59.4535989" lon="17.8061932">
        <ele>22</ele>
        <time>2012-07-31T21:33:50Z</time>
      </trkpt>
      <trkpt lat="59.453501" lon="17.8063711">
        <ele>23</ele>
        <time>2012-07-31T21:33:53Z</time>
      </trkpt>
      <trkpt lat="59.453373" lon="17.8066198">
        <ele>22.6</ele>
        <time>2012-07-31T21:33:57Z</time>
      </trkpt>
      <trkpt lat="59.4532132" lon="17.8068876">
        <ele>22.6</ele>
        <time>2012-07-31T21:34:02Z</time>
      </trkpt>
      <trkpt lat="59.4531563" lon="17.8069811">
        <ele>22</ele>
        <time>2012-07-31T21:34:04Z</time>
      </trkpt>
      <trkpt lat="59.4531263" lon="17.8070399">
        <ele>22.2</ele>
        <time>2012-07-31T21:34:05Z</time>
      </trkpt>
      <trkpt lat="59.453069" lon="17.8071586">
        <ele>22</ele>
        <time>2012-07-31T21:34:07Z</time>
      </trkpt>
      <trkpt lat="59.4529338" lon="17.8073391">
        <ele>21.2</ele>
        <time>2012-07-31T21:34:11Z</time>
      </trkpt>
      <trkpt lat="59.4529019" lon="17.8074141">
        <ele>21</ele>
        <time>2012-07-31T21:34:12Z</time>
      </trkpt>
      <trkpt lat="59.4527643" lon="17.8076836">
        <ele>19.6</ele>
        <time>2012-07-31T21:34:16Z</time>
      </trkpt>
      <trkpt lat="59.4527312" lon="17.8077402">
        <ele>19.2</ele>
        <time>2012-07-31T21:34:17Z</time>
      </trkpt>
      <trkpt lat="59.4526685" lon="17.8078316">
        <ele>17.8</ele>
        <time>2012-07-31T21:34:19Z</time>
      </trkpt>
      <trkpt lat="59.4526013" lon="17.8079593">
        <ele>17.6</ele>
        <time>2012-07-31T21:34:21Z</time>
      </trkpt>
      <trkpt lat="59.4525684" lon="17.8080255">
        <ele>17.4</ele>
        <time>2012-07-31T21:34:22Z</time>
      </trkpt>
      <trkpt lat="59.4524659" lon="17.8082402">
        <ele>14.6</ele>
        <time>2012-07-31T21:34:26Z</time>
      </trkpt>
      <trkpt lat="59.4524402" lon="17.8082971">
        <ele>14.8</ele>
        <time>2012-07-31T21:34:27Z</time>
      </trkpt>
      <trkpt lat="59.452329" lon="17.8084847">
        <ele>13.8</ele>
        <time>2012-07-31T21:34:31Z</time>
      </trkpt>
      <trkpt lat="59.4522993" lon="17.8085402">
        <ele>14</ele>
        <time>2012-07-31T21:34:32Z</time>
      </trkpt>
      <trkpt lat="59.4521935" lon="17.8087605">
        <ele>14</ele>
        <time>2012-07-31T21:34:36Z</time>
      </trkpt>
      <trkpt lat="59.4520463" lon="17.8090307">
        <ele>12.2</ele>
        <time>2012-07-31T21:34:41Z</time>
      </trkpt>
      <trkpt lat="59.4518961" lon="17.8093313">
        <ele>11</ele>
        <time>2012-07-31T21:34:47Z</time>
      </trkpt>
      <trkpt lat="59.4517724" lon="17.8095942">
        <ele>10.2</ele>
        <time>2012-07-31T21:34:52Z</time>
      </trkpt>
      <trkpt lat="59.4516381" lon="17.8098782">
        <ele>12.4</ele>
        <time>2012-07-31T21:34:57Z</time>
      </trkpt>
      <trkpt lat="59.4515207" lon="17.8101896">
        <ele>16.6</ele>
        <time>2012-07-31T21:35:03Z</time>
      </trkpt>
      <trkpt lat="59.451405" lon="17.8104662">
        <ele>17.8</ele>
        <time>2012-07-31T21:35:08Z</time>
      </trkpt>
      <trkpt lat="59.4512617" lon="17.8107312">
        <ele>16.6</ele>
        <time>2012-07-31T21:35:14Z</time>
      </trkpt>
      <trkpt lat="59.4511225" lon="17.8110132">
        <ele>17.4</ele>
        <time>2012-07-31T21:35:20Z</time>
      </trkpt>
      <trkpt lat="59.4509868" lon="17.8113049">
        <ele>19</ele>
        <time>2012-07-31T21:35:26Z</time>
      </trkpt>
      <trkpt lat="59.4508633" lon="17.8116036">
        <ele>20.4</ele>
        <time>2012-07-31T21:35:32Z</time>
      </trkpt>
      <trkpt lat="59.4507405" lon="17.8118979">
        <ele>19.8</ele>
        <time>2012-07-31T21:35:38Z</time>
      </trkpt>
      <trkpt lat="59.4506331" lon="17.8121959">
        <ele>20.4</ele>
        <time>2012-07-31T21:35:44Z</time>
      </trkpt>
      <trkpt lat="59.4505405" lon="17.8124994">
        <ele>23.2</ele>
        <time>2012-07-31T21:35:50Z</time>
      </trkpt>
      <trkpt lat="59.4504139" lon="17.8127634">
        <ele>24</ele>
        <time>2012-07-31T21:35:56Z</time>
      </trkpt>
      <trkpt lat="59.4502913" lon="17.8130619">
        <ele>23.6</ele>
        <time>2012-07-31T21:36:02Z</time>
      </trkpt>
      <trkpt lat="59.4501753" lon="17.813381">
        <ele>24.4</ele>
        <time>2012-07-31T21:36:09Z</time>
      </trkpt>
      <trkpt lat="59.450065" lon="17.8137215">
        <ele>25.4</ele>
        <time>2012-07-31T21:36:15Z</time>
      </trkpt>
      <trkpt lat="59.4499412" lon="17.8140487">
        <ele>26.6</ele>
        <time>2012-07-31T21:36:21Z</time>
      </trkpt>
      <trkpt lat="59.4498254" lon="17.8144062">
        <ele>27</ele>
        <time>2012-07-31T21:36:27Z</time>
      </trkpt>
      <trkpt lat="59.4497465" lon="17.8147346">
        <ele>26.8</ele>
        <time>2012-07-31T21:36:33Z</time>
      </trkpt>
      <trkpt lat="59.4497165" lon="17.8151459">
        <ele>25.4</ele>
        <time>2012-07-31T21:36:40Z</time>
      </trkpt>
      <trkpt lat="59.4496248" lon="17.8154877">
        <ele>27.4</ele>
        <time>2012-07-31T21:36:46Z</time>
      </trkpt>
      <trkpt lat="59.4495268" lon="17.8158363">
        <ele>29.4</ele>
        <time>2012-07-31T21:36:53Z</time>
      </trkpt>
      <trkpt lat="59.4495214" lon="17.8160015">
        <ele>29.4</ele>
        <time>2012-07-31T21:36:56Z</time>
      </trkpt>
      <trkpt lat="59.4495308" lon="17.8160955">
        <ele>29.6</ele>
        <time>2012-07-31T21:36:58Z</time>
      </trkpt>
      <trkpt lat="59.4495143" lon="17.8162077">
        <ele>29.4</ele>
        <time>2012-07-31T21:37:00Z</time>
      </trkpt>
      <trkpt lat="59.4494386" lon="17.8165304">
        <ele>31.2</ele>
        <time>2012-07-31T21:37:05Z</time>
      </trkpt>
      <trkpt lat="59.4493802" lon="17.8167227">
        <ele>32</ele>
        <time>2012-07-31T21:37:08Z</time>
      </trkpt>
      <trkpt lat="59.4493406" lon="17.8168474">
        <ele>34.2</ele>
        <time>2012-07-31T21:37:10Z</time>
      </trkpt>
      <trkpt lat="59.4492527" lon="17.8171946">
        <ele>35.4</ele>
        <time>2012-07-31T21:37:15Z</time>
      </trkpt>
      <trkpt lat="59.4492109" lon="17.8175205">
        <ele>34.2</ele>
        <time>2012-07-31T21:37:23Z</time>
      </trkpt>
      <trkpt lat="59.4492088" lon="17.8175511">
        <ele>34.2</ele>
        <time>2012-07-31T21:37:24Z</time>
      </trkpt>
      <trkpt lat="59.449143" lon="17.8179096">
        <ele>33.8</ele>
        <time>2012-07-31T21:37:32Z</time>
      </trkpt>
      <trkpt lat="59.44913" lon="17.8179733">
        <ele>34.6</ele>
        <time>2012-07-31T21:37:33Z</time>
      </trkpt>
      <trkpt lat="59.4491029" lon="17.8182346">
        <ele>33.2</ele>
        <time>2012-07-31T21:37:39Z</time>
      </trkpt>
      <trkpt lat="59.4490973" lon="17.8182779">
        <ele>33</ele>
        <time>2012-07-31T21:37:40Z</time>
      </trkpt>
      <trkpt lat="59.4490197" lon="17.8186531">
        <ele>35.6</ele>
        <time>2012-07-31T21:37:49Z</time>
      </trkpt>
      <trkpt lat="59.4489559" lon="17.819007">
        <ele>36.6</ele>
        <time>2012-07-31T21:37:55Z</time>
      </trkpt>
      <trkpt lat="59.4489046" lon="17.8193947">
        <ele>37.6</ele>
        <time>2012-07-31T21:38:01Z</time>
      </trkpt>
      <trkpt lat="59.4488719" lon="17.8197547">
        <ele>39.8</ele>
        <time>2012-07-31T21:38:09Z</time>
      </trkpt>
      <trkpt lat="59.4489046" lon="17.820065">
        <ele>41</ele>
        <time>2012-07-31T21:38:19Z</time>
      </trkpt>
      <trkpt lat="59.4489024" lon="17.8201085">
        <ele>41.4</ele>
        <time>2012-07-31T21:38:20Z</time>
      </trkpt>
      <trkpt lat="59.4488832" lon="17.8202763">
        <ele>42.8</ele>
        <time>2012-07-31T21:38:24Z</time>
      </trkpt>
      <trkpt lat="59.4488599" lon="17.8204726">
        <ele>44.8</ele>
        <time>2012-07-31T21:38:28Z</time>
      </trkpt>
      <trkpt lat="59.4488249" lon="17.8208668">
        <ele>45.2</ele>
        <time>2012-07-31T21:38:34Z</time>
      </trkpt>
      <trkpt lat="59.4487942" lon="17.8212719">
        <ele>44</ele>
        <time>2012-07-31T21:38:39Z</time>
      </trkpt>
      <trkpt lat="59.4487618" lon="17.8216656">
        <ele>42.2</ele>
        <time>2012-07-31T21:38:45Z</time>
      </trkpt>
      <trkpt lat="59.4487544" lon="17.8220788">
        <ele>40.6</ele>
        <time>2012-07-31T21:38:51Z</time>
      </trkpt>
      <trkpt lat="59.4487472" lon="17.822468">
        <ele>39.8</ele>
        <time>2012-07-31T21:38:56Z</time>
      </trkpt>
      <trkpt lat="59.448762" lon="17.8228881">
        <ele>36.6</ele>
        <time>2012-07-31T21:39:01Z</time>
      </trkpt>
      <trkpt lat="59.4487814" lon="17.8230816">
        <ele>34.4</ele>
        <time>2012-07-31T21:39:03Z</time>
      </trkpt>
      <trkpt lat="59.4488114" lon="17.8232662">
        <ele>32.6</ele>
        <time>2012-07-31T21:39:05Z</time>
      </trkpt>
      <trkpt lat="59.448839" lon="17.8233905">
        <ele>32.6</ele>
        <time>2012-07-31T21:39:07Z</time>
      </trkpt>
      <trkpt lat="59.448877" lon="17.8236221">
        <ele>33.2</ele>
        <time>2012-07-31T21:39:12Z</time>
      </trkpt>
      <trkpt lat="59.4488861" lon="17.823984">
        <ele>35</ele>
        <time>2012-07-31T21:39:18Z</time>
      </trkpt>
      <trkpt lat="59.4489246" lon="17.8242076">
        <ele>34.8</ele>
        <time>2012-07-31T21:39:23Z</time>
      </trkpt>
      <trkpt lat="59.4489382" lon="17.8243798">
        <ele>33.2</ele>
        <time>2012-07-31T21:39:26Z</time>
      </trkpt>
      <trkpt lat="59.4489417" lon="17.8244432">
        <ele>32.8</ele>
        <time>2012-07-31T21:39:27Z</time>
      </trkpt>
      <trkpt lat="59.4489564" lon="17.8247659">
        <ele>32.6</ele>
        <time>2012-07-31T21:39:31Z</time>
      </trkpt>
      <trkpt lat="59.448993" lon="17.8251533">
        <ele>31.8</ele>
        <time>2012-07-31T21:39:36Z</time>
      </trkpt>
      <trkpt lat="59.4490303" lon="17.8253663">
        <ele>31</ele>
        <time>2012-07-31T21:39:39Z</time>
      </trkpt>
      <trkpt lat="59.4490501" lon="17.8255257">
        <ele>31.4</ele>
        <time>2012-07-31T21:39:41Z</time>
      </trkpt>
      <trkpt lat="59.4490703" lon="17.8256843">
        <ele>30.4</ele>
        <time>2012-07-31T21:39:43Z</time>
      </trkpt>
      <trkpt lat="59.4491071" lon="17.8259115">
        <ele>29.4</ele>
        <time>2012-07-31T21:39:46Z</time>
      </trkpt>
      <trkpt lat="59.4491251" lon="17.8259884">
        <ele>29</ele>
        <time>2012-07-31T21:39:47Z</time>
      </trkpt>
      <trkpt lat="59.4491708" lon="17.8262105">
        <ele>27.4</ele>
        <time>2012-07-31T21:39:50Z</time>
      </trkpt>
      <trkpt lat="59.4491839" lon="17.8262841">
        <ele>28.2</ele>
        <time>2012-07-31T21:39:51Z</time>
      </trkpt>
      <trkpt lat="59.4492416" lon="17.8266319">
        <ele>29.4</ele>
        <time>2012-07-31T21:39:56Z</time>
      </trkpt>
      <trkpt lat="59.4492963" lon="17.8270346">
        <ele>36.6</ele>
        <time>2012-07-31T21:40:01Z</time>
      </trkpt>
      <trkpt lat="59.4493542" lon="17.8274091">
        <ele>40.2</ele>
        <time>2012-07-31T21:40:06Z</time>
      </trkpt>
      <trkpt lat="59.4494231" lon="17.8277595">
        <ele>42.4</ele>
        <time>2012-07-31T21:40:11Z</time>
      </trkpt>
      <trkpt lat="59.4495019" lon="17.8280842">
        <ele>45.6</ele>
        <time>2012-07-31T21:40:16Z</time>
      </trkpt>
      <trkpt lat="59.4495791" lon="17.8284282">
        <ele>48.2</ele>
        <time>2012-07-31T21:40:21Z</time>
      </trkpt>
      <trkpt lat="59.4496556" lon="17.8287612">
        <ele>49.2</ele>
        <time>2012-07-31T21:40:26Z</time>
      </trkpt>
      <trkpt lat="59.4497189" lon="17.8290907">
        <ele>49</ele>
        <time>2012-07-31T21:40:31Z</time>
      </trkpt>
      <trkpt lat="59.4497733" lon="17.8294979">
        <ele>47.6</ele>
        <time>2012-07-31T21:40:37Z</time>
      </trkpt>
      <trkpt lat="59.4498505" lon="17.8298848">
        <ele>46</ele>
        <time>2012-07-31T21:40:43Z</time>
      </trkpt>
      <trkpt lat="59.4499132" lon="17.8302431">
        <ele>45.8</ele>
        <time>2012-07-31T21:40:48Z</time>
      </trkpt>
      <trkpt lat="59.449966" lon="17.830623">
        <ele>44.6</ele>
        <time>2012-07-31T21:40:53Z</time>
      </trkpt>
      <trkpt lat="59.4499909" lon="17.8308722">
        <ele>43</ele>
        <time>2012-07-31T21:40:56Z</time>
      </trkpt>
      <trkpt lat="59.450011" lon="17.8310265">
        <ele>42.8</ele>
        <time>2012-07-31T21:40:58Z</time>
      </trkpt>
      <trkpt lat="59.4500308" lon="17.8311764">
        <ele>41.4</ele>
        <time>2012-07-31T21:41:00Z</time>
      </trkpt>
      <trkpt lat="59.4500634" lon="17.8314146">
        <ele>41.2</ele>
        <time>2012-07-31T21:41:03Z</time>
      </trkpt>
      <trkpt lat="59.4500887" lon="17.8316609">
        <ele>41.2</ele>
        <time>2012-07-31T21:41:06Z</time>
      </trkpt>
      <trkpt lat="59.4501063" lon="17.8318168">
        <ele>40.8</ele>
        <time>2012-07-31T21:41:08Z</time>
      </trkpt>
      <trkpt lat="59.4501106" lon="17.8318921">
        <ele>40.6</ele>
        <time>2012-07-31T21:41:09Z</time>
      </trkpt>
      <trkpt lat="59.4501375" lon="17.8321046">
        <ele>39.2</ele>
        <time>2012-07-31T21:41:12Z</time>
      </trkpt>
      <trkpt lat="59.450139" lon="17.8321797">
        <ele>38</ele>
        <time>2012-07-31T21:41:13Z</time>
      </trkpt>
      <trkpt lat="59.4501748" lon="17.8325972">
        <ele>38.8</ele>
        <time>2012-07-31T21:41:18Z</time>
      </trkpt>
      <trkpt lat="59.4502131" lon="17.8330342">
        <ele>39.4</ele>
        <time>2012-07-31T21:41:23Z</time>
      </trkpt>
      <trkpt lat="59.4502363" lon="17.8334207">
        <ele>38.4</ele>
        <time>2012-07-31T21:41:27Z</time>
      </trkpt>
      <trkpt lat="59.4502476" lon="17.833596">
        <ele>38.4</ele>
        <time>2012-07-31T21:41:29Z</time>
      </trkpt>
      <trkpt lat="59.4502582" lon="17.8337739">
        <ele>39</ele>
        <time>2012-07-31T21:41:31Z</time>
      </trkpt>
      <trkpt lat="59.4502618" lon="17.8340947">
        <ele>37.2</ele>
        <time>2012-07-31T21:41:35Z</time>
      </trkpt>
      <trkpt lat="59.4502691" lon="17.8341693">
        <ele>36.6</ele>
        <time>2012-07-31T21:41:36Z</time>
      </trkpt>
      <trkpt lat="59.450402" lon="17.8344112">
        <ele>37.4</ele>
        <time>2012-07-31T21:41:41Z</time>
      </trkpt>
      <trkpt lat="59.4505649" lon="17.8342889">
        <ele>36.6</ele>
        <time>2012-07-31T21:41:46Z</time>
      </trkpt>
      <trkpt lat="59.4507285" lon="17.8340383">
        <ele>38</ele>
        <time>2012-07-31T21:41:51Z</time>
      </trkpt>
      <trkpt lat="59.4508912" lon="17.8338405">
        <ele>38.8</ele>
        <time>2012-07-31T21:41:55Z</time>
      </trkpt>
      <trkpt lat="59.4510553" lon="17.8335796">
        <ele>38.2</ele>
        <time>2012-07-31T21:42:00Z</time>
      </trkpt>
      <trkpt lat="59.4511493" lon="17.8333502">
        <ele>37.4</ele>
        <time>2012-07-31T21:42:04Z</time>
      </trkpt>
      <trkpt lat="59.4511645" lon="17.8332843">
        <ele>36.6</ele>
        <time>2012-07-31T21:42:05Z</time>
      </trkpt>
      <trkpt lat="59.451187" lon="17.8332213">
        <ele>36</ele>
        <time>2012-07-31T21:42:06Z</time>
      </trkpt>
      <trkpt lat="59.4512769" lon="17.8329331">
        <ele>33.8</ele>
        <time>2012-07-31T21:42:10Z</time>
      </trkpt>
      <trkpt lat="59.451409" lon="17.8326827">
        <ele>34.6</ele>
        <time>2012-07-31T21:42:15Z</time>
      </trkpt>
      <trkpt lat="59.451548" lon="17.8323657">
        <ele>36.6</ele>
        <time>2012-07-31T21:42:20Z</time>
      </trkpt>
      <trkpt lat="59.4516796" lon="17.8321277">
        <ele>38.4</ele>
        <time>2012-07-31T21:42:24Z</time>
      </trkpt>
      <trkpt lat="59.4517304" lon="17.8320133">
        <ele>39.8</ele>
        <time>2012-07-31T21:42:26Z</time>
      </trkpt>
      <trkpt lat="59.4518163" lon="17.8318356">
        <ele>40.8</ele>
        <time>2012-07-31T21:42:29Z</time>
      </trkpt>
      <trkpt lat="59.4518486" lon="17.8317755">
        <ele>40.2</ele>
        <time>2012-07-31T21:42:30Z</time>
      </trkpt>
      <trkpt lat="59.4519137" lon="17.8316486">
        <ele>39.8</ele>
        <time>2012-07-31T21:42:32Z</time>
      </trkpt>
      <trkpt lat="59.4519727" lon="17.8315285">
        <ele>40.4</ele>
        <time>2012-07-31T21:42:34Z</time>
      </trkpt>
      <trkpt lat="59.4520503" lon="17.8313451">
        <ele>40.4</ele>
        <time>2012-07-31T21:42:37Z</time>
      </trkpt>
      <trkpt lat="59.4521033" lon="17.8312098">
        <ele>38.8</ele>
        <time>2012-07-31T21:42:39Z</time>
      </trkpt>
      <trkpt lat="59.4522494" lon="17.8308701">
        <ele>37</ele>
        <time>2012-07-31T21:42:44Z</time>
      </trkpt>
      <trkpt lat="59.4523613" lon="17.8306473">
        <ele>36.2</ele>
        <time>2012-07-31T21:42:47Z</time>
      </trkpt>
      <trkpt lat="59.4524036" lon="17.8305812">
        <ele>36.8</ele>
        <time>2012-07-31T21:42:48Z</time>
      </trkpt>
      <trkpt lat="59.4525106" lon="17.8304219">
        <ele>39.4</ele>
        <time>2012-07-31T21:42:51Z</time>
      </trkpt>
      <trkpt lat="59.4525759" lon="17.8303101">
        <ele>39.8</ele>
        <time>2012-07-31T21:42:53Z</time>
      </trkpt>
      <trkpt lat="59.452617" lon="17.8302579">
        <ele>40</ele>
        <time>2012-07-31T21:42:54Z</time>
      </trkpt>
      <trkpt lat="59.4526824" lon="17.8301625">
        <ele>40</ele>
        <time>2012-07-31T21:42:56Z</time>
      </trkpt>
      <trkpt lat="59.45274" lon="17.8300371">
        <ele>39.6</ele>
        <time>2012-07-31T21:42:58Z</time>
      </trkpt>
      <trkpt lat="59.4528973" lon="17.8297709">
        <ele>39.2</ele>
        <time>2012-07-31T21:43:03Z</time>
      </trkpt>
      <trkpt lat="59.4529197" lon="17.8297241">
        <ele>39.2</ele>
        <time>2012-07-31T21:43:04Z</time>
      </trkpt>
      <trkpt lat="59.4529858" lon="17.8296137">
        <ele>39.2</ele>
        <time>2012-07-31T21:43:06Z</time>
      </trkpt>
      <trkpt lat="59.4530518" lon="17.8295051">
        <ele>38.4</ele>
        <time>2012-07-31T21:43:08Z</time>
      </trkpt>
      <trkpt lat="59.4532051" lon="17.8292767">
        <ele>37.6</ele>
        <time>2012-07-31T21:43:12Z</time>
      </trkpt>
      <trkpt lat="59.453277" lon="17.8291704">
        <ele>37.2</ele>
        <time>2012-07-31T21:43:14Z</time>
      </trkpt>
      <trkpt lat="59.4533407" lon="17.8290404">
        <ele>36.8</ele>
        <time>2012-07-31T21:43:16Z</time>
      </trkpt>
      <trkpt lat="59.453513" lon="17.8288324">
        <ele>35.4</ele>
        <time>2012-07-31T21:43:21Z</time>
      </trkpt>
      <trkpt lat="59.4535546" lon="17.8288104">
        <ele>36.2</ele>
        <time>2012-07-31T21:43:22Z</time>
      </trkpt>
      <trkpt lat="59.4537126" lon="17.8287079">
        <ele>36.4</ele>
        <time>2012-07-31T21:43:26Z</time>
      </trkpt>
      <trkpt lat="59.4537481" lon="17.8286779">
        <ele>36.6</ele>
        <time>2012-07-31T21:43:27Z</time>
      </trkpt>
      <trkpt lat="59.453861" lon="17.8285689">
        <ele>37.4</ele>
        <time>2012-07-31T21:43:30Z</time>
      </trkpt>
      <trkpt lat="59.4538982" lon="17.8285437">
        <ele>38.2</ele>
        <time>2012-07-31T21:43:31Z</time>
      </trkpt>
      <trkpt lat="59.4539702" lon="17.8284976">
        <ele>39.8</ele>
        <time>2012-07-31T21:43:33Z</time>
      </trkpt>
      <trkpt lat="59.4540856" lon="17.8284198">
        <ele>41.2</ele>
        <time>2012-07-31T21:43:36Z</time>
      </trkpt>
      <trkpt lat="59.4542544" lon="17.8283003">
        <ele>40.6</ele>
        <time>2012-07-31T21:43:40Z</time>
      </trkpt>
      <trkpt lat="59.4544363" lon="17.8281795">
        <ele>39.4</ele>
        <time>2012-07-31T21:43:44Z</time>
      </trkpt>
      <trkpt lat="59.4546394" lon="17.8280174">
        <ele>37.2</ele>
        <time>2012-07-31T21:43:48Z</time>
      </trkpt>
      <trkpt lat="59.4547331" lon="17.8279398">
        <ele>36.8</ele>
        <time>2012-07-31T21:43:50Z</time>
      </trkpt>
      <trkpt lat="59.4548447" lon="17.8278516">
        <ele>36.2</ele>
        <time>2012-07-31T21:43:52Z</time>
      </trkpt>
      <trkpt lat="59.4550546" lon="17.8277341">
        <ele>35.2</ele>
        <time>2012-07-31T21:43:56Z</time>
      </trkpt>
      <trkpt lat="59.455235" lon="17.8276458">
        <ele>33.8</ele>
        <time>2012-07-31T21:44:00Z</time>
      </trkpt>
      <trkpt lat="59.4553687" lon="17.8275652">
        <ele>33.6</ele>
        <time>2012-07-31T21:44:03Z</time>
      </trkpt>
      <trkpt lat="59.4554168" lon="17.8275225">
        <ele>33</ele>
        <time>2012-07-31T21:44:04Z</time>
      </trkpt>
      <trkpt lat="59.4556009" lon="17.8274">
        <ele>34.2</ele>
        <time>2012-07-31T21:44:08Z</time>
      </trkpt>
      <trkpt lat="59.4556469" lon="17.8273678">
        <ele>34.6</ele>
        <time>2012-07-31T21:44:09Z</time>
      </trkpt>
      <trkpt lat="59.4557818" lon="17.8272725">
        <ele>33.6</ele>
        <time>2012-07-31T21:44:12Z</time>
      </trkpt>
      <trkpt lat="59.4558236" lon="17.8272306">
        <ele>32.6</ele>
        <time>2012-07-31T21:44:13Z</time>
      </trkpt>
      <trkpt lat="59.4559615" lon="17.8271754">
        <ele>33</ele>
        <time>2012-07-31T21:44:16Z</time>
      </trkpt>
      <trkpt lat="59.4560081" lon="17.8271521">
        <ele>33.8</ele>
        <time>2012-07-31T21:44:17Z</time>
      </trkpt>
      <trkpt lat="59.4560991" lon="17.8271265">
        <ele>34.2</ele>
        <time>2012-07-31T21:44:19Z</time>
      </trkpt>
      <trkpt lat="59.4561429" lon="17.8271031">
        <ele>33.4</ele>
        <time>2012-07-31T21:44:20Z</time>
      </trkpt>
      <trkpt lat="59.4562902" lon="17.8270756">
        <ele>33</ele>
        <time>2012-07-31T21:44:23Z</time>
      </trkpt>
      <trkpt lat="59.4563406" lon="17.8270665">
        <ele>32.6</ele>
        <time>2012-07-31T21:44:24Z</time>
      </trkpt>
      <trkpt lat="59.4564401" lon="17.8270309">
        <ele>32.4</ele>
        <time>2012-07-31T21:44:26Z</time>
      </trkpt>
      <trkpt lat="59.4565169" lon="17.8269312">
        <ele>31.4</ele>
        <time>2012-07-31T21:44:28Z</time>
      </trkpt>
      <trkpt lat="59.4565967" lon="17.8266556">
        <ele>29</ele>
        <time>2012-07-31T21:44:32Z</time>
      </trkpt>
      <trkpt lat="59.4566073" lon="17.8265914">
        <ele>29</ele>
        <time>2012-07-31T21:44:33Z</time>
      </trkpt>
      <trkpt lat="59.4566172" lon="17.8265241">
        <ele>29.6</ele>
        <time>2012-07-31T21:44:34Z</time>
      </trkpt>
      <trkpt lat="59.4566479" lon="17.8262454">
        <ele>29.6</ele>
        <time>2012-07-31T21:44:38Z</time>
      </trkpt>
      <trkpt lat="59.4566529" lon="17.82618">
        <ele>29.4</ele>
        <time>2012-07-31T21:44:39Z</time>
      </trkpt>
      <trkpt lat="59.4566761" lon="17.8258331">
        <ele>28.2</ele>
        <time>2012-07-31T21:44:44Z</time>
      </trkpt>
      <trkpt lat="59.4567052" lon="17.8254237">
        <ele>28.6</ele>
        <time>2012-07-31T21:44:50Z</time>
      </trkpt>
      <trkpt lat="59.4567311" lon="17.8250321">
        <ele>28.2</ele>
        <time>2012-07-31T21:44:55Z</time>
      </trkpt>
      <trkpt lat="59.45676" lon="17.8246524">
        <ele>27.8</ele>
        <time>2012-07-31T21:44:59Z</time>
      </trkpt>
      <trkpt lat="59.4567665" lon="17.8245522">
        <ele>27.6</ele>
        <time>2012-07-31T21:45:00Z</time>
      </trkpt>
      <trkpt lat="59.4567814" lon="17.8243531">
        <ele>28.2</ele>
        <time>2012-07-31T21:45:02Z</time>
      </trkpt>
      <trkpt lat="59.4567929" lon="17.8242571">
        <ele>27.6</ele>
        <time>2012-07-31T21:45:03Z</time>
      </trkpt>
      <trkpt lat="59.4568178" lon="17.8238507">
        <ele>27.8</ele>
        <time>2012-07-31T21:45:07Z</time>
      </trkpt>
      <trkpt lat="59.4568437" lon="17.8236532">
        <ele>28.4</ele>
        <time>2012-07-31T21:45:09Z</time>
      </trkpt>
      <trkpt lat="59.4568528" lon="17.8235626">
        <ele>28.2</ele>
        <time>2012-07-31T21:45:10Z</time>
      </trkpt>
      <trkpt lat="59.4568623" lon="17.8234696">
        <ele>28.4</ele>
        <time>2012-07-31T21:45:11Z</time>
      </trkpt>
      <trkpt lat="59.4568934" lon="17.8232205">
        <ele>29.2</ele>
        <time>2012-07-31T21:45:14Z</time>
      </trkpt>
      <trkpt lat="59.4569186" lon="17.8230713">
        <ele>29.8</ele>
        <time>2012-07-31T21:45:16Z</time>
      </trkpt>
      <trkpt lat="59.4569356" lon="17.8229269">
        <ele>29.8</ele>
        <time>2012-07-31T21:45:18Z</time>
      </trkpt>
      <trkpt lat="59.4569698" lon="17.8227233">
        <ele>29.8</ele>
        <time>2012-07-31T21:45:21Z</time>
      </trkpt>
      <trkpt lat="59.4569949" lon="17.822589">
        <ele>29.4</ele>
        <time>2012-07-31T21:45:23Z</time>
      </trkpt>
      <trkpt lat="59.4570351" lon="17.8223578">
        <ele>29</ele>
        <time>2012-07-31T21:45:26Z</time>
      </trkpt>
      <trkpt lat="59.4571108" lon="17.8220028">
        <ele>27.8</ele>
        <time>2012-07-31T21:45:31Z</time>
      </trkpt>
      <trkpt lat="59.4571688" lon="17.8216749">
        <ele>27.8</ele>
        <time>2012-07-31T21:45:35Z</time>
      </trkpt>
      <trkpt lat="59.4571913" lon="17.8215915">
        <ele>27.6</ele>
        <time>2012-07-31T21:45:36Z</time>
      </trkpt>
      <trkpt lat="59.4572336" lon="17.8214211">
        <ele>27.4</ele>
        <time>2012-07-31T21:45:38Z</time>
      </trkpt>
      <trkpt lat="59.4572667" lon="17.8212432">
        <ele>26</ele>
        <time>2012-07-31T21:45:40Z</time>
      </trkpt>
      <trkpt lat="59.4573187" lon="17.8209978">
        <ele>25.6</ele>
        <time>2012-07-31T21:45:43Z</time>
      </trkpt>
      <trkpt lat="59.4573379" lon="17.820911">
        <ele>25.6</ele>
        <time>2012-07-31T21:45:44Z</time>
      </trkpt>
      <trkpt lat="59.4574128" lon="17.8205642">
        <ele>26.4</ele>
        <time>2012-07-31T21:45:48Z</time>
      </trkpt>
      <trkpt lat="59.4574688" lon="17.8202924">
        <ele>26.4</ele>
        <time>2012-07-31T21:45:51Z</time>
      </trkpt>
      <trkpt lat="59.4574858" lon="17.8202025">
        <ele>26.6</ele>
        <time>2012-07-31T21:45:52Z</time>
      </trkpt>
      <trkpt lat="59.4575314" lon="17.8199166">
        <ele>26.2</ele>
        <time>2012-07-31T21:45:55Z</time>
      </trkpt>
      <trkpt lat="59.4575408" lon="17.8198241">
        <ele>26.2</ele>
        <time>2012-07-31T21:45:56Z</time>
      </trkpt>
      <trkpt lat="59.4575625" lon="17.8194716">
        <ele>25.4</ele>
        <time>2012-07-31T21:46:00Z</time>
      </trkpt>
      <trkpt lat="59.4575624" lon="17.8190626">
        <ele>24.6</ele>
        <time>2012-07-31T21:46:05Z</time>
      </trkpt>
      <trkpt lat="59.4575352" lon="17.8187027">
        <ele>23.6</ele>
        <time>2012-07-31T21:46:10Z</time>
      </trkpt>
      <trkpt lat="59.4575487" lon="17.8183172">
        <ele>23.4</ele>
        <time>2012-07-31T21:46:16Z</time>
      </trkpt>
      <trkpt lat="59.4576295" lon="17.8179676">
        <ele>24.2</ele>
        <time>2012-07-31T21:46:22Z</time>
      </trkpt>
      <trkpt lat="59.4576937" lon="17.8175969">
        <ele>23.6</ele>
        <time>2012-07-31T21:46:28Z</time>
      </trkpt>
      <trkpt lat="59.4576221" lon="17.8172532">
        <ele>24.2</ele>
        <time>2012-07-31T21:46:33Z</time>
      </trkpt>
      <trkpt lat="59.4574773" lon="17.8169397">
        <ele>24.4</ele>
        <time>2012-07-31T21:46:39Z</time>
      </trkpt>
      <trkpt lat="59.4573223" lon="17.8166305">
        <ele>27.6</ele>
        <time>2012-07-31T21:46:45Z</time>
      </trkpt>
      <trkpt lat="59.4571912" lon="17.8163772">
        <ele>28.2</ele>
        <time>2012-07-31T21:46:49Z</time>
      </trkpt>
      <trkpt lat="59.4571199" lon="17.8162511">
        <ele>27.6</ele>
        <time>2012-07-31T21:46:51Z</time>
      </trkpt>
      <trkpt lat="59.4570539" lon="17.8161182">
        <ele>27</ele>
        <time>2012-07-31T21:46:53Z</time>
      </trkpt>
      <trkpt lat="59.4570207" lon="17.8160643">
        <ele>26.2</ele>
        <time>2012-07-31T21:46:54Z</time>
      </trkpt>
      <trkpt lat="59.4569447" lon="17.8159127">
        <ele>25.8</ele>
        <time>2012-07-31T21:46:57Z</time>
      </trkpt>
      <trkpt lat="59.4568965" lon="17.8158121">
        <ele>25.4</ele>
        <time>2012-07-31T21:46:59Z</time>
      </trkpt>
      <trkpt lat="59.4567329" lon="17.8155872">
        <ele>24.4</ele>
        <time>2012-07-31T21:47:04Z</time>
      </trkpt>
      <trkpt lat="59.4565459" lon="17.8153521">
        <ele>25</ele>
        <time>2012-07-31T21:47:09Z</time>
      </trkpt>
      <trkpt lat="59.4564754" lon="17.8152381">
        <ele>25</ele>
        <time>2012-07-31T21:47:11Z</time>
      </trkpt>
      <trkpt lat="59.4564022" lon="17.8151129">
        <ele>25.8</ele>
        <time>2012-07-31T21:47:13Z</time>
      </trkpt>
      <trkpt lat="59.4562857" lon="17.8148482">
        <ele>25</ele>
        <time>2012-07-31T21:47:17Z</time>
      </trkpt>
      <trkpt lat="59.4562535" lon="17.8147869">
        <ele>24.6</ele>
        <time>2012-07-31T21:47:18Z</time>
      </trkpt>
      <trkpt lat="59.4561555" lon="17.8146211">
        <ele>24.8</ele>
        <time>2012-07-31T21:47:21Z</time>
      </trkpt>
      <trkpt lat="59.456126" lon="17.8145645">
        <ele>25.6</ele>
        <time>2012-07-31T21:47:22Z</time>
      </trkpt>
      <trkpt lat="59.4560929" lon="17.8144891">
        <ele>27</ele>
        <time>2012-07-31T21:47:23Z</time>
      </trkpt>
      <trkpt lat="59.456069" lon="17.8144196">
        <ele>27.8</ele>
        <time>2012-07-31T21:47:24Z</time>
      </trkpt>
      <trkpt lat="59.4560283" lon="17.8143037">
        <ele>28.6</ele>
        <time>2012-07-31T21:47:26Z</time>
      </trkpt>
      <trkpt lat="59.4559647" lon="17.814141">
        <ele>28.2</ele>
        <time>2012-07-31T21:47:29Z</time>
      </trkpt>
      <trkpt lat="59.4558299" lon="17.8138358">
        <ele>29</ele>
        <time>2012-07-31T21:47:35Z</time>
      </trkpt>
      <trkpt lat="59.4556994" lon="17.8135623">
        <ele>31</ele>
        <time>2012-07-31T21:47:40Z</time>
      </trkpt>
      <trkpt lat="59.4556052" lon="17.8132468">
        <ele>30.8</ele>
        <time>2012-07-31T21:47:45Z</time>
      </trkpt>
      <trkpt lat="59.4555215" lon="17.8129164">
        <ele>32.8</ele>
        <time>2012-07-31T21:47:50Z</time>
      </trkpt>
      <trkpt lat="59.455433" lon="17.8125827">
        <ele>32.6</ele>
        <time>2012-07-31T21:47:55Z</time>
      </trkpt>
      <trkpt lat="59.4553422" lon="17.8122607">
        <ele>35.8</ele>
        <time>2012-07-31T21:48:00Z</time>
      </trkpt>
      <trkpt lat="59.4552472" lon="17.8119107">
        <ele>36.4</ele>
        <time>2012-07-31T21:48:05Z</time>
      </trkpt>
      <trkpt lat="59.4551402" lon="17.8115492">
        <ele>41</ele>
        <time>2012-07-31T21:48:10Z</time>
      </trkpt>
      <trkpt lat="59.4551185" lon="17.8114842">
        <ele>41.8</ele>
        <time>2012-07-31T21:48:11Z</time>
      </trkpt>
      <trkpt lat="59.4550522" lon="17.811192">
        <ele>42.8</ele>
        <time>2012-07-31T21:48:16Z</time>
      </trkpt>
      <trkpt lat="59.4550147" lon="17.8110535">
        <ele>42.6</ele>
        <time>2012-07-31T21:48:18Z</time>
      </trkpt>
      <trkpt lat="59.4549615" lon="17.8108734">
        <ele>42</ele>
        <time>2012-07-31T21:48:21Z</time>
      </trkpt>
      <trkpt lat="59.4548831" lon="17.8105533">
        <ele>40.2</ele>
        <time>2012-07-31T21:48:26Z</time>
      </trkpt>
      <trkpt lat="59.4547867" lon="17.8102013">
        <ele>37.6</ele>
        <time>2012-07-31T21:48:31Z</time>
      </trkpt>
      <trkpt lat="59.4546696" lon="17.8098775">
        <ele>36.4</ele>
        <time>2012-07-31T21:48:36Z</time>
      </trkpt>
      <trkpt lat="59.4545737" lon="17.8096009">
        <ele>36</ele>
        <time>2012-07-31T21:48:40Z</time>
      </trkpt>
      <trkpt lat="59.4545494" lon="17.8095271">
        <ele>35</ele>
        <time>2012-07-31T21:48:41Z</time>
      </trkpt>
      <trkpt lat="59.4545293" lon="17.8094447">
        <ele>33.2</ele>
        <time>2012-07-31T21:48:42Z</time>
      </trkpt>
      <trkpt lat="59.4544819" lon="17.8093152">
        <ele>30.8</ele>
        <time>2012-07-31T21:48:44Z</time>
      </trkpt>
      <trkpt lat="59.4544272" lon="17.8091909">
        <ele>29.2</ele>
        <time>2012-07-31T21:48:46Z</time>
      </trkpt>
      <trkpt lat="59.4543992" lon="17.809137">
        <ele>28.4</ele>
        <time>2012-07-31T21:48:47Z</time>
      </trkpt>
      <trkpt lat="59.4542829" lon="17.8088728">
        <ele>26.8</ele>
        <time>2012-07-31T21:48:51Z</time>
      </trkpt>
      <trkpt lat="59.4541659" lon="17.8086238">
        <ele>26.2</ele>
        <time>2012-07-31T21:48:55Z</time>
      </trkpt>
      <trkpt lat="59.454137" lon="17.8085799">
        <ele>26.2</ele>
        <time>2012-07-31T21:48:56Z</time>
      </trkpt>
      <trkpt lat="59.4540748" lon="17.8084842">
        <ele>26.2</ele>
        <time>2012-07-31T21:48:58Z</time>
      </trkpt>
      <trkpt lat="59.4539822" lon="17.8083579">
        <ele>26.4</ele>
        <time>2012-07-31T21:49:01Z</time>
      </trkpt>
      <trkpt lat="59.4539266" lon="17.8082609">
        <ele>26</ele>
        <time>2012-07-31T21:49:03Z</time>
      </trkpt>
      <trkpt lat="59.4538414" lon="17.8081009">
        <ele>26</ele>
        <time>2012-07-31T21:49:06Z</time>
      </trkpt>
      <trkpt lat="59.4537145" lon="17.8078322">
        <ele>23.8</ele>
        <time>2012-07-31T21:49:11Z</time>
      </trkpt>
      <trkpt lat="59.45359" lon="17.8075488">
        <ele>22.8</ele>
        <time>2012-07-31T21:49:16Z</time>
      </trkpt>
      <trkpt lat="59.453508" lon="17.8071946">
        <ele>21</ele>
        <time>2012-07-31T21:49:21Z</time>
      </trkpt>
      <trkpt lat="59.4534526" lon="17.8068251">
        <ele>20.2</ele>
        <time>2012-07-31T21:49:27Z</time>
      </trkpt>
      <trkpt lat="59.4534231" lon="17.8066762">
        <ele>20.8</ele>
        <time>2012-07-31T21:49:30Z</time>
      </trkpt>
      <trkpt lat="59.4534548" lon="17.806481">
        <ele>22.6</ele>
        <time>2012-07-31T21:49:34Z</time>
      </trkpt>
      <trkpt lat="59.4536056" lon="17.8062243">
        <ele>24.2</ele>
        <time>2012-07-31T21:49:40Z</time>
      </trkpt>
      <trkpt lat="59.4537334" lon="17.8059642">
        <ele>24.8</ele>
        <time>2012-07-31T21:49:45Z</time>
      </trkpt>
      <trkpt lat="59.4538585" lon="17.8056918">
        <ele>28</ele>
        <time>2012-07-31T21:49:50Z</time>
      </trkpt>
      <trkpt lat="59.4539993" lon="17.8054705">
        <ele>28.2</ele>
        <time>2012-07-31T21:49:54Z</time>
      </trkpt>
      <trkpt lat="59.4540335" lon="17.8054222">
        <ele>28</ele>
        <time>2012-07-31T21:49:55Z</time>
      </trkpt>
      <trkpt lat="59.4541422" lon="17.8052566">
        <ele>28.6</ele>
        <time>2012-07-31T21:49:58Z</time>
      </trkpt>
      <trkpt lat="59.4542115" lon="17.8051565">
        <ele>29</ele>
        <time>2012-07-31T21:50:00Z</time>
      </trkpt>
      <trkpt lat="59.4542908" lon="17.8050022">
        <ele>29</ele>
        <time>2012-07-31T21:50:03Z</time>
      </trkpt>
      <trkpt lat="59.4543168" lon="17.8049562">
        <ele>29</ele>
        <time>2012-07-31T21:50:04Z</time>
      </trkpt>
      <trkpt lat="59.4543432" lon="17.8049138">
        <ele>28.8</ele>
        <time>2012-07-31T21:50:05Z</time>
      </trkpt>
      <trkpt lat="59.4544585" lon="17.8047474">
        <ele>28.4</ele>
        <time>2012-07-31T21:50:09Z</time>
      </trkpt>
      <trkpt lat="59.4546524" lon="17.8045365">
        <ele>27.8</ele>
        <time>2012-07-31T21:50:14Z</time>
      </trkpt>
      <trkpt lat="59.4548219" lon="17.8043832">
        <ele>27.8</ele>
        <time>2012-07-31T21:50:18Z</time>
      </trkpt>
      <trkpt lat="59.4549114" lon="17.8043195">
        <ele>27.4</ele>
        <time>2012-07-31T21:50:20Z</time>
      </trkpt>
      <trkpt lat="59.4550283" lon="17.8042713">
        <ele>26.2</ele>
        <time>2012-07-31T21:50:23Z</time>
      </trkpt>
      <trkpt lat="59.4550659" lon="17.8042604">
        <ele>26</ele>
        <time>2012-07-31T21:50:24Z</time>
      </trkpt>
      <trkpt lat="59.4552104" lon="17.8042376">
        <ele>26</ele>
        <time>2012-07-31T21:50:28Z</time>
      </trkpt>
      <trkpt lat="59.4553982" lon="17.8042593">
        <ele>27.2</ele>
        <time>2012-07-31T21:50:34Z</time>
      </trkpt>
      <trkpt lat="59.4554285" lon="17.8042649">
        <ele>27.4</ele>
        <time>2012-07-31T21:50:35Z</time>
      </trkpt>
      <trkpt lat="59.4555783" lon="17.8043204">
        <ele>27.2</ele>
        <time>2012-07-31T21:50:40Z</time>
      </trkpt>
      <trkpt lat="59.4557416" lon="17.804475">
        <ele>27.6</ele>
        <time>2012-07-31T21:50:45Z</time>
      </trkpt>
      <trkpt lat="59.4559179" lon="17.8046218">
        <ele>26.8</ele>
        <time>2012-07-31T21:50:50Z</time>
      </trkpt>
      <trkpt lat="59.4560939" lon="17.804765">
        <ele>26.4</ele>
        <time>2012-07-31T21:50:55Z</time>
      </trkpt>
      <trkpt lat="59.4562856" lon="17.8049022">
        <ele>27.8</ele>
        <time>2012-07-31T21:51:00Z</time>
      </trkpt>
      <trkpt lat="59.4563276" lon="17.8049312">
        <ele>28.6</ele>
        <time>2012-07-31T21:51:01Z</time>
      </trkpt>
      <trkpt lat="59.4564598" lon="17.805027">
        <ele>27.2</ele>
        <time>2012-07-31T21:51:05Z</time>
      </trkpt>
      <trkpt lat="59.4566541" lon="17.805197">
        <ele>29.2</ele>
        <time>2012-07-31T21:51:11Z</time>
      </trkpt>
      <trkpt lat="59.456842" lon="17.8053217">
        <ele>28.8</ele>
        <time>2012-07-31T21:51:16Z</time>
      </trkpt>
      <trkpt lat="59.4570125" lon="17.8054242">
        <ele>26.2</ele>
        <time>2012-07-31T21:51:21Z</time>
      </trkpt>
      <trkpt lat="59.457201" lon="17.8055051">
        <ele>28.2</ele>
        <time>2012-07-31T21:51:27Z</time>
      </trkpt>
      <trkpt lat="59.4572254" lon="17.805481">
        <ele>28.2</ele>
        <time>2012-07-31T21:51:28Z</time>
      </trkpt>
      <trkpt lat="59.45734" lon="17.805261">
        <ele>27.6</ele>
        <time>2012-07-31T21:51:33Z</time>
      </trkpt>
      <trkpt lat="59.4574767" lon="17.8050055">
        <ele>27.8</ele>
        <time>2012-07-31T21:51:38Z</time>
      </trkpt>
      <trkpt lat="59.4576455" lon="17.8047526">
        <ele>27.2</ele>
        <time>2012-07-31T21:51:43Z</time>
      </trkpt>
      <trkpt lat="59.4576839" lon="17.8047024">
        <ele>27.6</ele>
        <time>2012-07-31T21:51:44Z</time>
      </trkpt>
      <trkpt lat="59.4577728" lon="17.8046101">
        <ele>28</ele>
        <time>2012-07-31T21:51:46Z</time>
      </trkpt>
      <trkpt lat="59.4578218" lon="17.8045749">
        <ele>28.4</ele>
        <time>2012-07-31T21:51:47Z</time>
      </trkpt>
      <trkpt lat="59.4580259" lon="17.8044334">
        <ele>28</ele>
        <time>2012-07-31T21:51:51Z</time>
      </trkpt>
      <trkpt lat="59.4582407" lon="17.8043879">
        <ele>27.4</ele>
        <time>2012-07-31T21:51:55Z</time>
      </trkpt>
      <trkpt lat="59.4583899" lon="17.8043996">
        <ele>29.6</ele>
        <time>2012-07-31T21:51:58Z</time>
      </trkpt>
      <trkpt lat="59.4584296" lon="17.8044023">
        <ele>30.8</ele>
        <time>2012-07-31T21:51:59Z</time>
      </trkpt>
      <trkpt lat="59.4585572" lon="17.8044298">
        <ele>32.4</ele>
        <time>2012-07-31T21:52:02Z</time>
      </trkpt>
      <trkpt lat="59.4586379" lon="17.8044343">
        <ele>33.6</ele>
        <time>2012-07-31T21:52:04Z</time>
      </trkpt>
      <trkpt lat="59.4587309" lon="17.8044346">
        <ele>34.6</ele>
        <time>2012-07-31T21:52:06Z</time>
      </trkpt>
      <trkpt lat="59.458853" lon="17.8043937">
        <ele>35.2</ele>
        <time>2012-07-31T21:52:09Z</time>
      </trkpt>
      <trkpt lat="59.4589245" lon="17.8043519">
        <ele>36.4</ele>
        <time>2012-07-31T21:52:11Z</time>
      </trkpt>
      <trkpt lat="59.4589541" lon="17.8043341">
        <ele>36.2</ele>
        <time>2012-07-31T21:52:12Z</time>
      </trkpt>
    </trkseg>
  </trk>
</gpx>